Time;durP1;ratioP1;P1;durP2;ratioP2;P2;SDS_P1;SDS_P2;PMS_P1;PMS_P2;Temp;Humidity;BMP_temperature;BMP_pressure;BME280_temperature;BME280_humidity;BME280_pressure;Samples;Min_cycle;Max_cycle;Signal;HPM_P1;HPM_P2
2023/07/30 00:00:34;;;;;;;57.00;2.60;;;;;;;;;;5071343;28;20469;-71
2023/07/30 00:03:01;;;;;;;56.57;2.33;;;;;;;;;;5071499;28;20471;-70
2023/07/30 00:05:28;;;;;;;56.90;2.40;;;;;;;;;;5071243;28;20486;-70
2023/07/30 00:07:55;;;;;;;56.90;2.40;;;;;;;;;;5071342;28;20444;-70
2023/07/30 00:10:22;;;;;;;56.50;2.40;;;;;;;;;;5071001;28;20492;-70
2023/07/30 00:12:49;;;;;;;56.80;2.50;;;;;;;;;;5071213;28;20463;-70
2023/07/30 00:15:18;;;;;;;56.00;2.40;;;;;;;;;;5071433;28;20450;-67
2023/07/30 00:17:52;;;;;;;56.87;3.07;;;;;;;;;;5071605;28;20458;-70
2023/07/30 00:20:19;;;;;;;56.77;2.60;;;;;;;;;;5070854;28;20958;-70
2023/07/30 00:22:46;;;;;;;56.57;2.40;;;;;;;;;;5071033;28;20475;-70
2023/07/30 00:25:14;;;;;;;56.67;2.40;;;;;;;;;;5071245;28;20486;-70
2023/07/30 00:27:41;;;;;;;57.10;3.23;;;;;;;;;;5071058;28;20448;-70
2023/07/30 00:30:08;;;;;;;56.57;2.37;;;;;;;;;;5070950;28;20457;-68
2023/07/30 00:32:40;;;;;;;56.87;2.60;;;;;;;;;;5071163;28;20554;-69
2023/07/30 00:35:08;;;;;;;56.67;2.60;;;;;;;;;;5071527;28;20495;-70
2023/07/30 00:37:35;;;;;;;56.87;2.60;;;;;;;;;;5071227;28;20500;-69
2023/07/30 00:40:03;;;;;;;56.43;2.30;;;;;;;;;;5070872;28;20932;-70
2023/07/30 00:42:30;;;;;;;56.57;2.40;;;;;;;;;;5070831;28;20470;-70
2023/07/30 00:44:57;;;;;;;56.87;2.50;;;;;;;;;;5071094;28;20447;-70
2023/07/30 00:47:24;;;;;;;56.83;2.43;;;;;;;;;;5070933;28;20883;-70
2023/07/30 00:49:53;;;;;;;56.47;2.30;;;;;;;;;;5073162;28;20815;-70
2023/07/30 00:52:21;;;;;;;56.37;2.30;;;;;;;;;;5074932;28;20474;-71
2023/07/30 00:54:49;;;;;;;56.47;2.40;;;;;;;;;;5074964;28;20467;-71
2023/07/30 00:57:17;;;;;;;56.63;2.20;;;;;;;;;;5075030;28;20450;-70
2023/07/30 00:59:44;;;;;;;57.00;2.87;;;;;;;;;;5074854;28;20451;-70
2023/07/30 01:02:12;;;;;;;56.37;2.13;;;;;;;;;;5074417;28;20467;-71
2023/07/30 01:04:40;;;;;;;56.77;2.30;;;;;;;;;;5073372;28;20511;-70
2023/07/30 01:07:09;;;;;;;56.47;2.40;;;;;;;;;;5075038;28;20490;-70
2023/07/30 01:09:36;;;;;;;57.20;2.80;;;;;;;;;;5074647;28;20443;-70
2023/07/30 01:12:03;;;;;;;56.73;2.33;;;;;;;;;;5074224;28;20473;-70
2023/07/30 01:14:31;;;;;;;56.70;2.30;;;;;;;;;;5074775;28;20448;-70
2023/07/30 01:16:58;;;;;;;56.37;2.30;;;;;;;;;;5074739;28;20443;-70
2023/07/30 01:19:25;;;;;;;56.67;2.40;;;;;;;;;;5074923;28;20538;-70
2023/07/30 01:21:54;;;;;;;56.77;2.30;;;;;;;;;;5074083;28;20455;-70
2023/07/30 01:24:21;;;;;;;56.47;2.40;;;;;;;;;;5074265;28;20443;-70
2023/07/30 01:26:50;;;;;;;56.73;2.40;;;;;;;;;;5074451;28;20498;-70
2023/07/30 01:29:22;;;;;;;56.27;2.30;;;;;;;;;;5074229;28;20449;-71
2023/07/30 01:31:52;;;;;;;56.47;2.30;;;;;;;;;;5073994;28;20455;-71
2023/07/30 01:34:20;;;;;;;56.70;2.40;;;;;;;;;;5074150;28;20951;-69
2023/07/30 01:36:48;;;;;;;57.73;3.33;;;;;;;;;;5073944;28;20873;-70
2023/07/30 01:39:17;;;;;;;56.47;2.23;;;;;;;;;;5074036;28;20451;-69
2023/07/30 01:41:44;;;;;;;57.10;2.93;;;;;;;;;;5073980;28;20526;-71
2023/07/30 01:44:11;;;;;;;57.40;3.23;;;;;;;;;;5074106;28;20546;-70
2023/07/30 01:46:38;;;;;;;56.70;2.30;;;;;;;;;;5073924;28;20478;-70
2023/07/30 01:49:05;;;;;;;58.37;3.67;;;;;;;;;;5073903;28;20951;-71
2023/07/30 01:51:32;;;;;;;56.60;2.57;;;;;;;;;;5073871;28;20451;-70
2023/07/30 01:53:59;;;;;;;56.57;2.40;;;;;;;;;;5073886;28;20486;-70
2023/07/30 01:56:28;;;;;;;56.67;2.50;;;;;;;;;;5074018;28;20819;-70
2023/07/30 01:58:55;;;;;;;56.40;2.20;;;;;;;;;;5073815;28;20461;-71
2023/07/30 02:01:22;;;;;;;56.37;2.33;;;;;;;;;;5073387;28;20454;-70
2023/07/30 02:03:49;;;;;;;56.37;2.20;;;;;;;;;;5073484;28;20493;-71
2023/07/30 02:06:17;;;;;;;56.47;2.23;;;;;;;;;;5073385;28;21036;-71
2023/07/30 02:08:44;;;;;;;56.67;2.50;;;;;;;;;;5074008;28;20457;-71
2023/07/30 02:11:11;;;;;;;57.57;2.80;;;;;;;;;;5073359;28;20447;-71
2023/07/30 02:13:39;;;;;;;56.70;2.40;;;;;;;;;;5073965;28;20991;-71
2023/07/30 02:16:06;;;;;;;56.70;2.57;;;;;;;;;;5073384;28;20448;-70
2023/07/30 02:18:33;;;;;;;56.60;2.40;;;;;;;;;;5073332;28;20826;-70
2023/07/30 02:21:00;;;;;;;56.50;2.20;;;;;;;;;;5073324;28;20444;-69
2023/07/30 02:23:28;;;;;;;56.67;2.30;;;;;;;;;;5073211;28;20480;-71
2023/07/30 02:25:55;;;;;;;56.57;2.30;;;;;;;;;;5073319;28;20490;-70
2023/07/30 02:28:22;;;;;;;56.40;2.30;;;;;;;;;;5073286;28;20447;-71
2023/07/30 02:30:51;;;;;;;56.57;2.40;;;;;;;;;;5072832;28;20451;-71
2023/07/30 02:33:18;;;;;;;56.70;2.50;;;;;;;;;;5073339;28;20475;-71
2023/07/30 02:35:45;;;;;;;57.00;2.80;;;;;;;;;;5072907;28;20463;-71
2023/07/30 02:38:12;;;;;;;56.50;2.20;;;;;;;;;;5073150;28;20444;-71
2023/07/30 02:40:39;;;;;;;56.57;2.63;;;;;;;;;;5072772;28;20459;-71
2023/07/30 02:43:07;;;;;;;56.50;2.30;;;;;;;;;;5073386;28;20468;-71
2023/07/30 02:45:34;;;;;;;56.47;2.27;;;;;;;;;;5072696;28;20443;-71
2023/07/30 02:48:02;;;;;;;56.63;2.27;;;;;;;;;;5073257;28;20444;-71
2023/07/30 02:50:29;;;;;;;56.50;2.40;;;;;;;;;;5072691;28;20470;-68
2023/07/30 02:52:56;;;;;;;56.50;2.30;;;;;;;;;;5072884;28;20521;-71
2023/07/30 02:55:23;;;;;;;57.10;4.10;;;;;;;;;;5072584;28;20463;-71
2023/07/30 02:57:51;;;;;;;56.60;2.20;;;;;;;;;;5072609;28;20978;-71
2023/07/30 03:00:18;;;;;;;56.57;2.40;;;;;;;;;;5072278;28;20958;-70
2023/07/30 03:02:45;;;;;;;56.90;2.30;;;;;;;;;;5072483;28;20478;-71
2023/07/30 03:05:13;;;;;;;56.17;2.20;;;;;;;;;;5072632;28;20451;-70
2023/07/30 03:07:41;;;;;;;56.30;2.50;;;;;;;;;;5072276;28;20482;-71
2023/07/30 03:10:08;;;;;;;56.30;2.17;;;;;;;;;;5072271;28;20448;-67
2023/07/30 03:12:35;;;;;;;56.50;2.27;;;;;;;;;;5071651;28;20471;-70
2023/07/30 03:15:02;;;;;;;56.50;2.20;;;;;;;;;;5072265;28;20447;-70
2023/07/30 03:17:29;;;;;;;56.47;2.30;;;;;;;;;;5072351;28;20446;-71
2023/07/30 03:19:56;;;;;;;56.67;2.20;;;;;;;;;;5072327;28;20454;-70
2023/07/30 03:22:24;;;;;;;56.60;2.60;;;;;;;;;;5071926;28;20467;-71
2023/07/30 03:24:52;;;;;;;56.67;2.40;;;;;;;;;;5072078;28;20536;-71
2023/07/30 03:27:19;;;;;;;56.90;3.10;;;;;;;;;;5071832;28;20479;-70
2023/07/30 03:29:46;;;;;;;56.37;2.23;;;;;;;;;;5072233;28;20444;-71
2023/07/30 03:32:13;;;;;;;56.90;2.60;;;;;;;;;;5071747;28;20463;-71
2023/07/30 03:34:40;;;;;;;56.60;2.33;;;;;;;;;;5071979;28;20447;-70
2023/07/30 03:37:07;;;;;;;56.47;2.10;;;;;;;;;;5071688;28;20931;-71
2023/07/30 03:39:35;;;;;;;56.33;2.30;;;;;;;;;;5071750;28;20448;-71
2023/07/30 03:42:03;;;;;;;56.47;2.10;;;;;;;;;;5071678;28;20581;-70
2023/07/30 03:44:30;;;;;;;56.80;2.30;;;;;;;;;;5071873;28;20454;-71
2023/07/30 03:46:57;;;;;;;56.20;2.20;;;;;;;;;;5071377;28;20483;-71
2023/07/30 03:49:24;;;;;;;56.70;2.60;;;;;;;;;;5071903;28;20444;-71
2023/07/30 03:51:51;;;;;;;57.03;3.23;;;;;;;;;;5071244;28;20978;-70
2023/07/30 03:54:18;;;;;;;56.70;2.97;;;;;;;;;;5071642;28;20467;-71
2023/07/30 03:56:46;;;;;;;56.70;2.40;;;;;;;;;;5072063;28;20543;-70
2023/07/30 03:59:14;;;;;;;56.47;2.43;;;;;;;;;;5071678;28;20444;-71
2023/07/30 04:01:41;;;;;;;56.57;2.47;;;;;;;;;;5071195;28;20463;-71
2023/07/30 04:04:08;;;;;;;56.33;2.23;;;;;;;;;;5071408;28;20453;-71
2023/07/30 04:06:35;;;;;;;56.70;2.40;;;;;;;;;;5071712;28;20995;-71
2023/07/30 04:09:02;;;;;;;56.57;2.30;;;;;;;;;;5071231;28;20455;-71
2023/07/30 04:11:30;;;;;;;56.43;2.30;;;;;;;;;;5071017;28;20451;-70
2023/07/30 04:13:58;;;;;;;56.50;2.20;;;;;;;;;;5071570;28;20471;-71
2023/07/30 04:16:25;;;;;;;56.23;2.17;;;;;;;;;;5071390;28;20439;-71
2023/07/30 04:18:52;;;;;;;56.90;2.50;;;;;;;;;;5071365;28;20444;-70
2023/07/30 04:21:19;;;;;;;56.40;2.30;;;;;;;;;;5070902;28;20521;-70
2023/07/30 04:23:47;;;;;;;56.67;2.40;;;;;;;;;;5070807;28;20478;-69
2023/07/30 04:26:15;;;;;;;56.47;2.20;;;;;;;;;;5071537;28;20451;-70
2023/07/30 04:28:42;;;;;;;59.33;2.63;;;;;;;;;;5071288;28;20453;-70
2023/07/30 04:31:10;;;;;;;56.90;2.77;;;;;;;;;;5071217;28;20451;-70
2023/07/30 04:33:37;;;;;;;56.17;2.30;;;;;;;;;;5071032;28;20478;-70
2023/07/30 04:36:04;;;;;;;56.27;2.20;;;;;;;;;;5070915;28;20447;-69
2023/07/30 04:38:32;;;;;;;56.53;2.40;;;;;;;;;;5071056;28;20463;-70
2023/07/30 04:40:59;;;;;;;56.60;2.33;;;;;;;;;;5071084;28;20443;-70
2023/07/30 04:43:26;;;;;;;56.40;2.20;;;;;;;;;;5070973;28;20482;-71
2023/07/30 04:45:53;;;;;;;56.60;2.40;;;;;;;;;;5071001;28;20454;-70
2023/07/30 04:48:21;;;;;;;56.30;2.20;;;;;;;;;;5070864;28;20486;-70
2023/07/30 04:50:49;;;;;;;57.30;4.60;;;;;;;;;;5070917;28;20477;-71
2023/07/30 04:53:16;;;;;;;56.80;2.80;;;;;;;;;;5070976;28;20480;-71
2023/07/30 04:55:44;;;;;;;56.27;2.20;;;;;;;;;;5071113;28;20464;-70
2023/07/30 04:58:11;;;;;;;56.53;2.43;;;;;;;;;;5070989;28;20447;-71
2023/07/30 05:00:38;;;;;;;56.47;2.30;;;;;;;;;;5070596;28;20470;-71
2023/07/30 05:03:05;;;;;;;56.40;2.30;;;;;;;;;;5070637;28;20478;-70
2023/07/30 05:05:33;;;;;;;57.40;2.50;;;;;;;;;;5070952;28;20477;-71
2023/07/30 05:08:01;;;;;;;56.57;2.40;;;;;;;;;;5070646;28;21038;-71
2023/07/30 05:10:28;;;;;;;56.37;2.27;;;;;;;;;;5070591;28;20455;-70
2023/07/30 05:12:55;;;;;;;56.43;2.20;;;;;;;;;;5070649;28;20475;-70
2023/07/30 05:15:22;;;;;;;56.40;2.30;;;;;;;;;;5070649;28;20822;-70
2023/07/30 05:17:49;;;;;;;56.60;2.50;;;;;;;;;;5070949;28;20446;-70
2023/07/30 05:20:16;;;;;;;56.43;2.20;;;;;;;;;;5070566;28;20443;-70
2023/07/30 05:22:44;;;;;;;56.37;2.53;;;;;;;;;;5070643;28;20468;-70
2023/07/30 05:25:12;;;;;;;55.97;2.13;;;;;;;;;;5070622;28;20443;-71
2023/07/30 05:27:39;;;;;;;56.37;2.20;;;;;;;;;;5070558;28;20487;-70
2023/07/30 05:30:06;;;;;;;56.20;2.13;;;;;;;;;;5070216;28;20985;-71
2023/07/30 05:32:34;;;;;;;56.47;2.20;;;;;;;;;;5070733;28;20473;-70
2023/07/30 05:35:01;;;;;;;56.70;2.30;;;;;;;;;;5071497;28;20804;-70
2023/07/30 05:37:28;;;;;;;56.30;2.20;;;;;;;;;;5074016;28;20947;-69
2023/07/30 05:39:57;;;;;;;56.77;2.47;;;;;;;;;;5074201;28;20465;-69
2023/07/30 05:42:24;;;;;;;56.90;2.40;;;;;;;;;;5073987;28;20562;-69
2023/07/30 05:44:51;;;;;;;56.37;2.10;;;;;;;;;;5073967;28;20457;-69
2023/07/30 05:47:19;;;;;;;56.40;2.30;;;;;;;;;;5074005;28;20491;-68
2023/07/30 05:49:46;;;;;;;56.33;2.10;;;;;;;;;;5074455;28;20928;-70
2023/07/30 05:52:13;;;;;;;56.47;2.60;;;;;;;;;;5073697;28;20467;-70
2023/07/30 05:54:40;;;;;;;56.50;2.20;;;;;;;;;;5073916;28;20459;-70
2023/07/30 05:57:08;;;;;;;56.37;2.30;;;;;;;;;;5073661;28;20451;-70
2023/07/30 05:59:35;;;;;;;56.27;2.20;;;;;;;;;;5074014;28;20443;-70
2023/07/30 06:02:03;;;;;;;56.23;2.17;;;;;;;;;;5073689;28;20794;-70
2023/07/30 06:04:30;;;;;;;56.37;2.20;;;;;;;;;;5073973;28;20461;-70
2023/07/30 06:06:59;;;;;;;56.20;2.30;;;;;;;;;;5073814;28;20479;-70
2023/07/30 06:09:26;;;;;;;56.37;2.20;;;;;;;;;;5073650;28;20950;-70
2023/07/30 06:11:53;;;;;;;56.37;2.20;;;;;;;;;;5073085;28;20443;-70
2023/07/30 06:14:22;;;;;;;56.30;2.10;;;;;;;;;;5073479;28;20453;-71
2023/07/30 06:16:49;;;;;;;56.37;2.03;;;;;;;;;;5073519;28;20450;-70
2023/07/30 06:19:16;;;;;;;56.47;2.20;;;;;;;;;;5073681;28;20826;-70
2023/07/30 06:21:43;;;;;;;56.30;2.30;;;;;;;;;;5073029;28;20455;-69
2023/07/30 06:24:11;;;;;;;56.00;2.00;;;;;;;;;;5073221;28;20447;-71
2023/07/30 06:26:38;;;;;;;56.27;2.20;;;;;;;;;;5073430;28;20538;-69
2023/07/30 06:29:05;;;;;;;56.50;2.53;;;;;;;;;;5073396;28;20479;-71
2023/07/30 06:31:33;;;;;;;57.40;2.20;;;;;;;;;;5072908;28;20447;-70
2023/07/30 06:34:00;;;;;;;56.17;2.47;;;;;;;;;;5073481;28;20471;-70
2023/07/30 06:36:27;;;;;;;56.20;2.50;;;;;;;;;;5073019;28;20954;-70
2023/07/30 06:38:55;;;;;;;56.10;2.30;;;;;;;;;;5072959;28;20444;-70
2023/07/30 06:41:22;;;;;;;56.17;2.00;;;;;;;;;;5072928;28;20969;-70
2023/07/30 06:43:49;;;;;;;56.30;2.10;;;;;;;;;;5072860;28;20467;-70
2023/07/30 06:46:16;;;;;;;56.07;2.10;;;;;;;;;;5072404;28;20448;-69
2023/07/30 06:48:45;;;;;;;57.57;2.17;;;;;;;;;;5072589;28;20487;-69
2023/07/30 06:51:13;;;;;;;56.30;2.10;;;;;;;;;;5072486;28;20453;-69
2023/07/30 06:53:40;;;;;;;56.30;2.10;;;;;;;;;;5072798;28;20464;-68
2023/07/30 06:56:07;;;;;;;56.17;2.17;;;;;;;;;;5072850;28;20491;-69
2023/07/30 06:58:34;;;;;;;56.10;2.10;;;;;;;;;;5072783;28;20811;-69
2023/07/30 07:01:02;;;;;;;56.60;2.50;;;;;;;;;;5072611;28;20439;-70
2023/07/30 07:03:29;;;;;;;56.30;2.93;;;;;;;;;;5072523;28;20478;-70
2023/07/30 07:05:57;;;;;;;56.17;2.20;;;;;;;;;;5072305;28;20447;-70
2023/07/30 07:08:25;;;;;;;56.17;2.40;;;;;;;;;;5072593;28;20497;-69
2023/07/30 07:10:52;;;;;;;56.30;2.40;;;;;;;;;;5072417;28;20454;-70
2023/07/30 07:13:19;;;;;;;56.37;2.03;;;;;;;;;;5072357;28;20475;-68
2023/07/30 07:15:46;;;;;;;56.23;2.07;;;;;;;;;;5072181;28;20455;-69
2023/07/30 07:18:14;;;;;;;57.30;3.13;;;;;;;;;;5072084;28;20478;-69
2023/07/30 07:20:41;;;;;;;56.27;2.17;;;;;;;;;;5071864;28;20453;-69
2023/07/30 07:23:09;;;;;;;55.93;2.10;;;;;;;;;;5071930;28;20478;-69
2023/07/30 07:25:37;;;;;;;56.17;2.10;;;;;;;;;;5071940;28;20497;-69
2023/07/30 07:28:04;;;;;;;56.13;2.00;;;;;;;;;;5072176;28;20491;-69
2023/07/30 07:30:31;;;;;;;56.27;2.03;;;;;;;;;;5071758;28;20447;-69
2023/07/30 07:32:59;;;;;;;56.33;2.20;;;;;;;;;;5071769;28;20464;-71
2023/07/30 07:35:26;;;;;;;56.17;2.17;;;;;;;;;;5071948;28;20943;-71
2023/07/30 07:37:53;;;;;;;56.47;2.10;;;;;;;;;;5072005;28;20469;-69
2023/07/30 07:40:21;;;;;;;56.40;2.10;;;;;;;;;;5071916;28;20830;-69
2023/07/30 07:42:48;;;;;;;56.33;2.20;;;;;;;;;;5071810;28;20471;-69
2023/07/30 07:45:16;;;;;;;56.27;2.10;;;;;;;;;;5071824;28;20826;-69
2023/07/30 07:47:43;;;;;;;56.70;2.57;;;;;;;;;;5071473;28;20490;-69
2023/07/30 07:50:10;;;;;;;56.17;2.10;;;;;;;;;;5071187;28;20454;-69
2023/07/30 07:52:37;;;;;;;56.47;2.33;;;;;;;;;;5071795;28;20463;-69
2023/07/30 07:55:05;;;;;;;56.37;2.30;;;;;;;;;;5071582;28;20542;-67
2023/07/30 07:57:33;;;;;;;56.27;2.03;;;;;;;;;;5071452;28;20457;-68
2023/07/30 08:00:00;;;;;;;56.60;2.60;;;;;;;;;;5071413;28;20971;-68
2023/07/30 08:02:27;;;;;;;56.50;2.23;;;;;;;;;;5071463;28;20459;-68
2023/07/30 08:04:54;;;;;;;56.27;2.70;;;;;;;;;;5071576;28;20448;-69
2023/07/30 08:07:21;;;;;;;56.40;2.30;;;;;;;;;;5071445;28;20827;-69
2023/07/30 08:09:49;;;;;;;56.60;2.20;;;;;;;;;;5071439;28;20443;-69
2023/07/30 08:12:16;;;;;;;56.20;2.03;;;;;;;;;;5071162;28;20483;-69
2023/07/30 08:14:44;;;;;;;56.40;2.20;;;;;;;;;;5071242;28;20446;-68
2023/07/30 08:17:11;;;;;;;56.30;2.17;;;;;;;;;;5071287;28;20451;-69
2023/07/30 08:19:38;;;;;;;56.30;2.20;;;;;;;;;;5071372;28;20954;-69
2023/07/30 08:22:06;;;;;;;56.17;2.00;;;;;;;;;;5071186;28;20475;-70
2023/07/30 08:24:33;;;;;;;56.13;2.30;;;;;;;;;;5071320;28;20454;-69
2023/07/30 08:27:00;;;;;;;56.47;2.10;;;;;;;;;;5071129;28;20935;-69
2023/07/30 08:29:28;;;;;;;56.17;2.10;;;;;;;;;;5070967;28;20486;-69
2023/07/30 08:31:56;;;;;;;56.23;2.20;;;;;;;;;;5070997;28;20447;-69
2023/07/30 08:34:23;;;;;;;56.20;2.00;;;;;;;;;;5071317;28;20796;-69
2023/07/30 08:36:50;;;;;;;56.13;2.00;;;;;;;;;;5071508;28;20962;-68
2023/07/30 08:39:18;;;;;;;56.37;2.47;;;;;;;;;;5071062;28;20447;-69
2023/07/30 08:41:45;;;;;;;55.77;2.00;;;;;;;;;;5070578;28;20443;-69
2023/07/30 08:44:12;;;;;;;56.13;2.00;;;;;;;;;;5071069;28;20943;-68
2023/07/30 08:46:39;;;;;;;56.03;2.00;;;;;;;;;;5071253;28;20450;-69
2023/07/30 08:49:08;;;;;;;56.13;2.00;;;;;;;;;;5070913;28;20498;-69
2023/07/30 08:51:37;;;;;;;56.07;2.20;;;;;;;;;;5070842;28;20443;-69
2023/07/30 08:54:05;;;;;;;56.37;1.93;;;;;;;;;;5070872;28;20479;-69
2023/07/30 08:56:32;;;;;;;56.17;2.00;;;;;;;;;;5070997;28;20455;-69
2023/07/30 08:59:00;;;;;;;56.30;1.90;;;;;;;;;;5071047;28;20450;-69
2023/07/30 09:01:31;;;;;;;56.17;2.10;;;;;;;;;;5070702;28;20443;-69
2023/07/30 09:04:00;;;;;;;56.07;1.80;;;;;;;;;;5070881;28;20463;-69
2023/07/30 09:06:28;;;;;;;55.97;1.90;;;;;;;;;;5070727;28;20452;-70
2023/07/30 09:08:55;;;;;;;56.07;2.27;;;;;;;;;;5070582;28;20572;-70
2023/07/30 09:11:27;;;;;;;56.47;2.10;;;;;;;;;;5073951;28;20451;-70
2023/07/30 09:13:55;;;;;;;56.30;2.30;;;;;;;;;;5074930;28;20478;-70
2023/07/30 09:16:25;;;;;;;56.17;2.00;;;;;;;;;;5074704;28;20451;-70
2023/07/30 09:18:53;;;;;;;56.27;2.10;;;;;;;;;;5074780;28;20459;-71
2023/07/30 09:21:20;;;;;;;56.90;2.30;;;;;;;;;;5074567;28;20447;-68
2023/07/30 09:23:49;;;;;;;56.23;2.00;;;;;;;;;;5074766;28;20497;-68
2023/07/30 09:26:16;;;;;;;56.07;1.77;;;;;;;;;;5074691;28;20830;-68
2023/07/30 09:28:43;;;;;;;56.50;2.07;;;;;;;;;;5074346;28;20581;-70
2023/07/30 09:31:10;;;;;;;56.13;1.90;;;;;;;;;;5074404;28;20447;-70
2023/07/30 09:33:41;;;;;;;56.30;2.20;;;;;;;;;;5074297;28;20475;-70
2023/07/30 09:36:09;;;;;;;56.37;2.57;;;;;;;;;;5074280;28;20454;-70
2023/07/30 09:38:40;;;;;;;56.37;1.80;;;;;;;;;;5074574;28;20815;-71
2023/07/30 09:41:09;;;;;;;55.77;1.90;;;;;;;;;;5073981;28;20963;-70
2023/07/30 09:43:36;;;;;;;56.03;1.90;;;;;;;;;;5074219;28;20892;-70
2023/07/30 09:46:04;;;;;;;56.20;1.90;;;;;;;;;;5074042;28;20478;-69
2023/07/30 09:48:31;;;;;;;55.97;1.80;;;;;;;;;;5073967;28;20850;-70
2023/07/30 09:51:02;;;;;;;56.17;1.80;;;;;;;;;;5073993;28;20447;-71
2023/07/30 09:53:29;;;;;;;56.77;1.90;;;;;;;;;;5074080;28;20532;-70
2023/07/30 09:55:56;;;;;;;56.27;1.80;;;;;;;;;;5073761;28;20461;-71
2023/07/30 09:58:25;;;;;;;55.73;1.70;;;;;;;;;;5073871;28;20446;-71
2023/07/30 10:00:53;;;;;;;55.77;1.90;;;;;;;;;;5073453;28;20451;-70
2023/07/30 10:03:20;;;;;;;56.47;2.33;;;;;;;;;;5073664;28;20459;-73
2023/07/30 10:05:48;;;;;;;56.40;2.20;;;;;;;;;;5073722;28;20948;-71
2023/07/30 10:08:18;;;;;;;56.27;1.80;;;;;;;;;;5073609;28;20491;-71
2023/07/30 10:10:46;;;;;;;55.70;1.90;;;;;;;;;;5073261;28;20952;-71
2023/07/30 10:13:14;;;;;;;56.07;1.80;;;;;;;;;;5073503;28;20811;-71
2023/07/30 10:15:42;;;;;;;56.40;2.77;;;;;;;;;;5073429;28;20443;-71
2023/07/30 10:18:10;;;;;;;56.50;2.27;;;;;;;;;;5073897;28;20443;-71
2023/07/30 10:20:37;;;;;;;56.07;1.90;;;;;;;;;;5073566;28;20493;-69
2023/07/30 10:23:06;;;;;;;56.37;1.90;;;;;;;;;;5072364;28;20467;-68
2023/07/30 10:25:44;;;;;;;56.23;2.00;;;;;;;;;;5073528;28;20447;-69
2023/07/30 10:28:11;;;;;;;55.77;1.80;;;;;;;;;;5073514;28;20516;-69
2023/07/30 10:30:38;;;;;;;56.50;2.10;;;;;;;;;;5073299;28;20447;-71
2023/07/30 10:33:11;;;;;;;55.93;1.70;;;;;;;;;;5073260;28;20553;-70
2023/07/30 10:35:40;;;;;;;55.70;2.00;;;;;;;;;;5073244;28;20491;-71
2023/07/30 10:38:14;;;;;;;56.30;1.70;;;;;;;;;;5073207;28;20478;-71
2023/07/30 10:40:41;;;;;;;56.37;1.80;;;;;;;;;;5072790;28;20447;-71
2023/07/30 10:43:15;;;;;;;56.23;2.00;;;;;;;;;;5073192;28;20472;-71
2023/07/30 10:45:49;;;;;;;56.30;1.70;;;;;;;;;;5072997;28;20458;-71
2023/07/30 10:48:18;;;;;;;55.87;1.90;;;;;;;;;;5072971;28;20455;-71
2023/07/30 10:50:48;;;;;;;56.30;2.00;;;;;;;;;;5072660;28;20449;-71
2023/07/30 10:53:16;;;;;;;56.03;1.90;;;;;;;;;;5072661;28;20467;-71
2023/07/30 10:55:43;;;;;;;56.40;1.90;;;;;;;;;;5072811;28;20478;-71
2023/07/30 10:58:10;;;;;;;56.07;1.60;;;;;;;;;;5072818;28;20448;-70
2023/07/30 11:00:38;;;;;;;60.80;2.03;;;;;;;;;;5072381;28;20962;-69
2023/07/30 11:03:05;;;;;;;56.40;1.73;;;;;;;;;;5072385;28;20991;-71
2023/07/30 11:05:34;;;;;;;56.30;2.27;;;;;;;;;;5072504;28;20439;-71
2023/07/30 11:08:01;;;;;;;55.90;1.70;;;;;;;;;;5072762;28;20830;-70
2023/07/30 11:10:28;;;;;;;56.03;1.90;;;;;;;;;;5072329;28;20487;-70
2023/07/30 11:12:55;;;;;;;56.30;2.03;;;;;;;;;;5072461;28;20505;-71
2023/07/30 11:15:22;;;;;;;56.00;1.97;;;;;;;;;;5072191;28;20955;-70
2023/07/30 11:17:49;;;;;;;56.30;1.90;;;;;;;;;;5072304;28;20451;-71
2023/07/30 11:20:23;;;;;;;56.23;2.03;;;;;;;;;;5071897;28;20804;-70
2023/07/30 11:22:52;;;;;;;57.10;2.00;;;;;;;;;;5072375;28;20475;-70
2023/07/30 11:25:19;;;;;;;56.17;1.90;;;;;;;;;;5072211;28;20451;-71
2023/07/30 11:27:46;;;;;;;56.27;1.90;;;;;;;;;;5072191;28;20447;-70
2023/07/30 11:30:14;;;;;;;56.27;2.00;;;;;;;;;;5072022;28;20483;-70
2023/07/30 11:32:41;;;;;;;56.40;2.00;;;;;;;;;;5071583;28;20471;-70
2023/07/30 11:35:08;;;;;;;56.37;2.00;;;;;;;;;;5072164;28;20451;-71
2023/07/30 11:37:39;;;;;;;56.13;1.97;;;;;;;;;;5071870;28;20447;-70
2023/07/30 11:40:09;;;;;;;56.17;1.80;;;;;;;;;;5071952;28;20443;-70
2023/07/30 11:42:36;;;;;;;56.97;2.30;;;;;;;;;;5071951;28;20475;-69
2023/07/30 11:45:18;;;;;;;55.83;1.70;;;;;;;;;;5071706;28;20481;-69
2023/07/30 11:47:45;;;;;;;56.50;2.13;;;;;;;;;;5072064;28;20447;-70
2023/07/30 11:50:12;;;;;;;55.57;1.80;;;;;;;;;;5071367;28;20579;-70
2023/07/30 11:52:52;;;;;;;55.60;1.67;;;;;;;;;;5071776;28;20475;-70
2023/07/30 11:55:20;;;;;;;56.10;1.70;;;;;;;;;;5071756;28;20474;-71
2023/07/30 11:57:48;;;;;;;56.17;1.80;;;;;;;;;;5071372;28;20461;-70
2023/07/30 12:00:15;;;;;;;56.60;2.00;;;;;;;;;;5071517;28;20451;-70
2023/07/30 12:02:43;;;;;;;55.97;1.70;;;;;;;;;;5071407;28;20525;-71
2023/07/30 12:05:11;;;;;;;56.47;2.40;;;;;;;;;;5071407;28;20952;-70
2023/07/30 12:07:42;;;;;;;56.13;2.00;;;;;;;;;;5071582;28;20451;-70
2023/07/30 12:10:10;;;;;;;56.20;1.83;;;;;;;;;;5071715;28;20835;-71
2023/07/30 12:12:38;;;;;;;55.60;1.60;;;;;;;;;;5071250;28;21017;-71
2023/07/30 12:15:12;;;;;;;56.00;1.90;;;;;;;;;;5071523;28;20466;-70
2023/07/30 12:17:39;;;;;;;56.00;2.00;;;;;;;;;;5071413;28;20446;-71
2023/07/30 12:20:07;;;;;;;55.80;1.70;;;;;;;;;;5071140;28;20448;-70
2023/07/30 12:22:35;;;;;;;55.50;1.67;;;;;;;;;;5071638;28;20468;-69
2023/07/30 12:25:02;;;;;;;56.17;1.80;;;;;;;;;;5071173;28;20947;-71
2023/07/30 12:27:29;;;;;;;55.57;1.53;;;;;;;;;;5071236;28;20447;-71
2023/07/30 12:29:58;;;;;;;55.37;1.43;;;;;;;;;;5071063;28;21037;-71
2023/07/30 12:32:28;;;;;;;55.60;1.67;;;;;;;;;;5071080;28;20922;-70
2023/07/30 12:34:55;;;;;;;55.47;1.50;;;;;;;;;;5071089;28;20491;-70
2023/07/30 12:37:22;;;;;;;55.80;2.00;;;;;;;;;;5071025;28;20935;-71
2023/07/30 12:39:49;;;;;;;55.47;1.70;;;;;;;;;;5071413;28;20477;-71
2023/07/30 12:42:16;;;;;;;55.50;2.00;;;;;;;;;;5070691;28;20481;-71
2023/07/30 12:44:43;;;;;;;55.47;1.57;;;;;;;;;;5071561;28;20815;-71
2023/07/30 12:47:12;;;;;;;55.27;1.50;;;;;;;;;;5075231;28;20446;-70
2023/07/30 12:49:39;;;;;;;56.10;2.40;;;;;;;;;;5074710;28;20482;-70
2023/07/30 12:52:07;;;;;;;55.47;1.50;;;;;;;;;;5074439;28;20469;-71
2023/07/30 12:54:34;;;;;;;55.47;2.00;;;;;;;;;;5071897;28;20443;-71
2023/07/30 12:57:01;;;;;;;55.50;1.60;;;;;;;;;;5074803;28;20653;-71
2023/07/30 12:59:28;;;;;;;55.67;1.43;;;;;;;;;;5075129;28;20443;-71
2023/07/30 13:01:55;;;;;;;55.40;1.77;;;;;;;;;;5074880;28;20447;-71
2023/07/30 13:04:27;;;;;;;55.40;1.40;;;;;;;;;;5075014;28;20460;-71
2023/07/30 13:06:54;;;;;;;55.13;1.60;;;;;;;;;;5075005;28;20512;-71
2023/07/30 13:09:22;;;;;;;55.50;1.70;;;;;;;;;;5074680;28;21024;-69
2023/07/30 13:11:49;;;;;;;55.50;1.70;;;;;;;;;;5074489;28;20455;-71
2023/07/30 13:14:16;;;;;;;55.70;1.50;;;;;;;;;;5074884;28;20787;-70
2023/07/30 13:16:43;;;;;;;55.47;1.60;;;;;;;;;;5074580;28;20447;-71
2023/07/30 13:19:10;;;;;;;55.27;1.47;;;;;;;;;;5075050;28;20494;-71
2023/07/30 13:21:39;;;;;;;55.90;1.90;;;;;;;;;;5074460;28;20451;-71
2023/07/30 13:24:06;;;;;;;55.57;1.70;;;;;;;;;;5074630;28;20472;-69
2023/07/30 13:26:33;;;;;;;55.27;1.70;;;;;;;;;;5074279;28;20461;-71
2023/07/30 13:29:00;;;;;;;55.80;1.60;;;;;;;;;;5074366;28;20767;-70
2023/07/30 13:31:27;;;;;;;56.20;1.90;;;;;;;;;;5074181;28;20940;-71
2023/07/30 13:33:54;;;;;;;55.47;1.50;;;;;;;;;;5074426;28;20469;-71
2023/07/30 13:36:21;;;;;;;55.60;1.50;;;;;;;;;;5074567;28;20459;-71
2023/07/30 13:38:50;;;;;;;55.63;1.90;;;;;;;;;;5074360;28;20447;-70
2023/07/30 13:41:17;;;;;;;55.60;1.50;;;;;;;;;;5073946;28;20443;-71
2023/07/30 13:43:44;;;;;;;55.80;2.00;;;;;;;;;;5073983;28;20474;-71
2023/07/30 13:46:11;;;;;;;55.80;1.80;;;;;;;;;;5073990;28;20451;-69
2023/07/30 13:48:38;;;;;;;56.03;1.60;;;;;;;;;;5074218;28;20830;-70
2023/07/30 13:51:05;;;;;;;56.00;1.77;;;;;;;;;;5073853;28;20487;-71
2023/07/30 13:53:34;;;;;;;55.90;1.97;;;;;;;;;;5073846;28;20489;-71
2023/07/30 13:56:03;;;;;;;56.30;2.00;;;;;;;;;;5073390;28;20463;-70
2023/07/30 13:58:30;;;;;;;55.90;1.60;;;;;;;;;;5073838;28;20447;-71
2023/07/30 14:00:57;;;;;;;55.67;1.50;;;;;;;;;;5073699;28;20451;-69
2023/07/30 14:03:24;;;;;;;55.90;1.53;;;;;;;;;;5073893;28;20471;-71
2023/07/30 14:05:51;;;;;;;55.90;1.90;;;;;;;;;;5073927;28;20454;-69
2023/07/30 14:08:18;;;;;;;56.30;2.00;;;;;;;;;;5073680;28;20943;-71
2023/07/30 14:10:45;;;;;;;56.00;1.70;;;;;;;;;;5073335;28;20490;-69
2023/07/30 14:13:14;;;;;;;55.70;2.07;;;;;;;;;;5073528;28;20497;-71
2023/07/30 14:15:41;;;;;;;55.40;1.60;;;;;;;;;;5073535;28;20943;-70
2023/07/30 14:18:08;;;;;;;55.60;1.50;;;;;;;;;;5073767;28;20454;-71
2023/07/30 14:20:37;;;;;;;55.67;1.70;;;;;;;;;;5073326;28;20458;-71
2023/07/30 14:23:05;;;;;;;55.93;1.80;;;;;;;;;;5073429;28;20521;-71
2023/07/30 14:25:33;;;;;;;56.37;2.17;;;;;;;;;;5073210;28;20452;-70
2023/07/30 14:28:00;;;;;;;55.70;1.80;;;;;;;;;;5073664;28;20448;-70
2023/07/30 14:30:28;;;;;;;55.80;1.80;;;;;;;;;;5073161;28;20864;-70
2023/07/30 14:32:55;;;;;;;59.30;1.93;;;;;;;;;;5073453;28;20475;-71